Dorothy J — WDC3893 — position and weather

sailwx.info

Track history (hours):
 
Tides and Currents Weather Stations Pressure Air Temp Water Temp Dewpoint Dewpoint Depression Visibility Wind Speed Wind Dir Waves Ship Positions

Dorothy J

Owner: HENRY MARINE SERVICE INC, STATEN ISLAND, NY. More information available from US FCC via Universal Licensing System and Coast Guard Vessel Documentation Center.

Last reported at 2017-Oct-18 02:00 UTC. Time now 2017-Oct-18 02:31 UTC.
Position N 40°46' W 073°51'.

Length 20 m; draft 3 m.

Type: Tug. MMSI: 367015890.

Date/timePositionNaut miles runAvg speedWind from/ knotsBaromVisibWave heightAir tempDewpointWater temp
2017-Oct-18 02:00N 40°46' W 073°51'0 0.0
2017-Oct-18 01:30N 40°46' W 073°51'0 0.0
2017-Oct-18 00:53N 40°46' W 073°51'0 0.0
2017-Oct-18 00:29N 40°46' W 073°51'0 0.0
2017-Oct-18 00:00N 40°46' W 073°51'0 0.0
2017-Oct-17 23:30N 40°46' W 073°51'0 0.0
2017-Oct-17 22:54N 40°46' W 073°51'0 0.0
2017-Oct-17 22:29N 40°46' W 073°51'0 0.0
2017-Oct-17 20:33N 40°46' W 073°51'0 0.0
2017-Oct-17 20:26N 40°46' W 073°51'0 0.0
2017-Oct-17 20:00N 40°46' W 073°51'0 0.0
2017-Oct-17 19:27N 40°46' W 073°51'0 0.0
2017-Oct-17 18:55N 40°46' W 073°51'0 0.0
2017-Oct-17 18:27N 40°46' W 073°51'0 0.0
2017-Oct-17 17:59N 40°46' W 073°51'0 0.0
2017-Oct-17 17:23N 40°46' W 073°51'0 0.0
2017-Oct-17 16:57N 40°46' W 073°51'0 0.0
2017-Oct-17 16:29N 40°46' W 073°51'0 0.0
2017-Oct-17 16:00N 40°46' W 073°51'0 0.0
2017-Oct-17 15:30N 40°46' W 073°51'0 0.1
2017-Oct-17 14:23N 40°46' W 073°51'2 6.2
2017-Oct-17 14:00N 40°48' W 073°53'1 1.4
2017-Oct-17 13:30N 40°47' W 073°52'2 3.1
2017-Oct-17 12:57N 40°46' W 073°51'0 0.1
2017-Oct-17 12:30N 40°46' W 073°51'0 0.0
2017-Oct-17 11:57N 40°46' W 073°51'0 0.0
2017-Oct-17 11:30N 40°46' W 073°51'0 0.0
2017-Oct-17 10:59N 40°46' W 073°51'0 0.1
2017-Oct-17 10:30N 40°46' W 073°51'0 0.0
2017-Oct-17 09:41N 40°46' W 073°51'0 0.0
2017-Oct-17 09:13N 40°46' W 073°51'1 3.6
2017-Oct-17 09:00N 40°46' W 073°51'3 5.2
2017-Oct-17 08:30N 40°48' W 073°54'4 7.9
2017-Oct-17 08:00N 40°45' W 073°57'3 6.7
2017-Oct-17 07:30N 40°42' W 073°59'3 6.1
2017-Oct-17 07:00N 40°40' W 074°02'2 4.1
2017-Oct-17 06:30N 40°39' W 074°05'2 4.6
2017-Oct-17 06:00N 40°39' W 074°07'1 2.1
2017-Oct-17 05:30N 40°38' W 074°09'0 0.0
2017-Oct-17 05:00N 40°38' W 074°09'0 0.0
2017-Oct-17 04:30N 40°38' W 074°09'0 0.0
2017-Oct-17 04:00N 40°38' W 074°09'0 0.0
2017-Oct-17 03:30N 40°38' W 074°09'0 0.0
2017-Oct-17 03:00N 40°38' W 074°09'0 0.0
2017-Oct-17 02:30N 40°38' W 074°09'0 0.0
2017-Oct-17 02:00N 40°38' W 074°09'1 2.5
2017-Oct-17 01:30N 40°39' W 074°07'2 3.8
2017-Oct-17 01:00N 40°39' W 074°05'2 4.1
2017-Oct-17 00:31N 40°40' W 074°03'3 5.3
2017-Oct-17 00:00N 40°43' W 074°02'2 4.5
2017-Oct-16 23:30N 40°45' W 074°01'2 3.5
2017-Oct-16 23:00N 40°47' W 074°00'2 3.2
2017-Oct-16 22:30N 40°48' W 073°59'1 3.0
2017-Oct-16 22:00N 40°49' W 073°58'1 2.5
2017-Oct-16 21:30N 40°51' W 073°57'2 4.5
2017-Oct-16 21:00N 40°53' W 073°56'3 5.2
2017-Oct-16 20:30N 40°55' W 073°55'4 0.2
2017-Oct-15 18:45N 40°59' W 073°54'2 5.8
2017-Oct-15 18:24N 40°57' W 073°54'2 5.8
2017-Oct-15 18:00N 40°55' W 073°55'3 5.2
2017-Oct-15 17:30N 40°52' W 073°56'2 4.7
2017-Oct-15 17:00N 40°50' W 073°57'2 4.4
2017-Oct-15 16:30N 40°48' W 073°59'2 4.3
2017-Oct-15 16:00N 40°46' W 074°00'2 4.6
2017-Oct-15 15:30N 40°44' W 074°01'2 4.7
2017-Oct-15 15:00N 40°42' W 074°01'8 8.3
2017-Oct-15 14:00N 40°48' W 073°53'3 5.5
2017-Oct-15 13:30N 40°46' W 073°51'0 0.0
2017-Oct-15 12:48N 40°46' W 073°51'0 0.0
2017-Oct-15 12:27N 40°46' W 073°51'0 0.0
2017-Oct-15 12:00N 40°46' W 073°51'0 0.0
2017-Oct-15 11:30N 40°46' W 073°51'0 0.0
2017-Oct-15 10:58N 40°46' W 073°51'0 0.0
2017-Oct-15 10:30N 40°46' W 073°51'0 0.0
2017-Oct-15 10:00N 40°46' W 073°51'0 0.0
2017-Oct-15 09:25N 40°46' W 073°51'0 0.0
2017-Oct-15 09:00N 40°46' W 073°51'0 0.0
2017-Oct-15 08:29N 40°46' W 073°51'0 0.0
2017-Oct-15 07:59N 40°46' W 073°51'0 0.0
2017-Oct-15 07:30N 40°46' W 073°51'0 0.0
2017-Oct-15 07:00N 40°46' W 073°51'0 0.0
2017-Oct-15 06:29N 40°46' W 073°51'0 0.0
2017-Oct-15 06:00N 40°46' W 073°51'0 0.0
2017-Oct-15 05:30N 40°46' W 073°51'0 0.0
2017-Oct-15 05:00N 40°46' W 073°51'0 0.0
2017-Oct-15 04:30N 40°46' W 073°51'0 0.0
2017-Oct-15 04:00N 40°46' W 073°51'0 0.0
2017-Oct-15 03:30N 40°46' W 073°51'0 0.0
2017-Oct-15 03:00N 40°46' W 073°51'0 0.0
2017-Oct-15 02:27N 40°46' W 073°51'0 0.0
2017-Oct-15 01:51N 40°46' W 073°51'0 0.0
2017-Oct-15 01:28N 40°46' W 073°51'0 0.0
2017-Oct-15 00:54N 40°46' W 073°51'0 0.0
2017-Oct-15 00:16N 40°46' W 073°51'0 0.3
2017-Oct-14 23:59N 40°46' W 073°51'1 1.5
2017-Oct-14 23:30N 40°46' W 073°51'1 3.0
2017-Oct-14 23:00N 40°48' W 073°52'1 1.5
2017-Oct-14 22:28N 40°47' W 073°52'1 0.6
2017-Oct-14 20:15N 40°46' W 073°51'0 0.0
2017-Oct-14 19:59N 40°46' W 073°51'0 0.0
2017-Oct-14 19:28N 40°46' W 073°51'0 0.0
2017-Oct-14 19:00N 40°46' W 073°51'0 0.4
2017-Oct-14 18:29N 40°46' W 073°51'3 6.7
2017-Oct-14 17:59N 40°48' W 073°54'510.2
2017-Oct-14 17:30N 40°44' W 073°58'4 8.5
2017-Oct-14 17:00N 40°41' W 074°02'3 6.6
2017-Oct-14 16:30N 40°39' W 074°05'3 6.7
2017-Oct-14 16:00N 40°39' W 074°10'2 3.2
2017-Oct-14 15:30N 40°38' W 074°12'2 4.4
2017-Oct-14 15:00N 40°39' W 074°09'1 2.5
2017-Oct-14 14:29N 40°38' W 074°07'0 0.0
2017-Oct-14 14:00N 40°38' W 074°07'0 0.0
2017-Oct-14 13:30N 40°38' W 074°07'0 0.0
2017-Oct-14 12:59N 40°38' W 074°07'0 0.0
2017-Oct-14 10:11N 40°38' W 074°07'0 0.0
2017-Oct-14 07:58N 40°38' W 074°07'0 0.0
2017-Oct-14 06:11N 40°38' W 074°07'0 0.0
2017-Oct-14 04:05N 40°38' W 074°07'0 0.0
2017-Oct-14 02:29N 40°38' W 074°07'0 0.0
2017-Oct-14 01:55N 40°38' W 074°07'1 2.9
2017-Oct-14 01:30N 40°38' W 074°09'1 1.2
2017-Oct-14 01:00N 40°39' W 074°08'2 5.0
2017-Oct-14 00:30N 40°39' W 074°05'3 6.1
2017-Oct-14 00:00N 40°41' W 074°02'3 6.7
2017-Oct-13 23:30N 40°45' W 074°01'3 6.1
2017-Oct-13 23:00N 40°47' W 073°59'3 5.6
2017-Oct-13 22:30N 40°50' W 073°58'2 4.8
2017-Oct-13 22:00N 40°52' W 073°57'2 4.6
2017-Oct-13 21:30N 40°54' W 073°56'2 4.5
2017-Oct-13 20:59N 40°56' W 073°55'3 0.1
2017-Oct-13 02:29N 40°59' W 073°54'3 4.4
2017-Oct-13 01:49N 40°56' W 073°54'1 4.6
2017-Oct-13 01:30N 40°55' W 073°55'2 4.4
2017-Oct-13 01:00N 40°53' W 073°56'2 4.6
2017-Oct-13 00:30N 40°51' W 073°57'2 4.6
2017-Oct-13 00:00N 40°49' W 073°58'2 4.8
2017-Oct-12 23:30N 40°47' W 073°60'3 5.3
2017-Oct-12 23:00N 40°44' W 074°01'2 3.9
2017-Oct-12 22:30N 40°42' W 073°60'4 8.5
2017-Oct-12 22:00N 40°46' W 073°57'4 7.8
2017-Oct-12 21:30N 40°48' W 073°52'2 3.2
2017-Oct-12 20:44N 40°46' W 073°51'0 0.0
2017-Oct-12 20:21N 40°46' W 073°51'0 0.0
2017-Oct-12 19:58N 40°46' W 073°51'0 0.0
2017-Oct-12 19:30N 40°46' W 073°51'0 0.0
2017-Oct-12 18:58N 40°46' W 073°51'0 0.0
2017-Oct-12 18:30N 40°46' W 073°51'0 0.0
2017-Oct-12 17:59N 40°46' W 073°51'0 0.0
2017-Oct-12 17:30N 40°46' W 073°51'0 0.0
2017-Oct-12 16:59N 40°46' W 073°51'0 0.0
2017-Oct-12 15:05N 40°46' W 073°51'0 0.0
2017-Oct-12 14:57N 40°46' W 073°51'0 0.0
2017-Oct-12 14:28N 40°46' W 073°51'0 0.0
2017-Oct-12 12:17N 40°46' W 073°51'0 0.0
2017-Oct-12 04:52N 40°46' W 073°51'2 4.9
2017-Oct-12 04:30N 40°48' W 073°52'3 5.7
2017-Oct-12 04:00N 40°47' W 073°55'4 7.6
2017-Oct-12 03:30N 40°44' W 073°58'3 5.9
2017-Oct-12 03:00N 40°42' W 074°01'3 6.2
2017-Oct-12 02:30N 40°45' W 074°01'3 6.9
2017-Oct-12 02:00N 40°48' W 073°59'4 7.3
2017-Oct-12 01:30N 40°51' W 073°57'4 8.0
2017-Oct-12 01:00N 40°55' W 073°55'18 0.7
2017-Oct-11 00:00N 40°39' W 074°07'0 0.0
2017-Oct-10 23:30N 40°39' W 074°07'2 3.3
2017-Oct-10 23:00N 40°39' W 074°05'2 4.6
2017-Oct-10 22:30N 40°41' W 074°02'4 8.1
2017-Oct-10 22:00N 40°43' W 073°58'5 9.5
2017-Oct-10 21:30N 40°47' W 073°55'3 5.5
2017-Oct-10 20:59N 40°47' W 073°51'1 1.7
2017-Oct-10 20:30N 40°46' W 073°51'0 0.1
2017-Oct-10 20:00N 40°46' W 073°51'0 0.0
2017-Oct-10 19:30N 40°46' W 073°51'0 0.0
2017-Oct-10 18:59N 40°46' W 073°51'0 0.0
2017-Oct-10 18:30N 40°46' W 073°51'2 4.5
2017-Oct-10 18:00N 40°48' W 073°52'2 4.0
2017-Oct-10 17:30N 40°46' W 073°51'0 0.8
2017-Oct-10 17:00N 40°46' W 073°51'0 0.0
2017-Oct-10 15:27N 40°46' W 073°51'0 0.0
2017-Oct-10 14:55N 40°46' W 073°51'0 0.0
2017-Oct-10 13:59N 40°46' W 073°51'0 0.0
2017-Oct-10 13:05N 40°46' W 073°51'0 0.0
2017-Oct-10 12:58N 40°46' W 073°51'0 0.0
2017-Oct-10 12:25N 40°46' W 073°51'0 0.0
2017-Oct-10 11:58N 40°46' W 073°51'0 0.0
2017-Oct-10 11:27N 40°46' W 073°51'0 0.0
2017-Oct-10 11:00N 40°46' W 073°51'0 0.0
2017-Oct-10 10:29N 40°46' W 073°51'0 0.0
2017-Oct-10 10:00N 40°46' W 073°51'0 0.0
2017-Oct-10 09:27N 40°46' W 073°51'0 0.0
2017-Oct-10 08:56N 40°46' W 073°51'0 0.0
2017-Oct-10 08:29N 40°46' W 073°51'0 0.0
2017-Oct-10 07:59N 40°46' W 073°51'0 0.0
2017-Oct-10 07:29N 40°46' W 073°51'0 0.0
2017-Oct-10 06:54N 40°46' W 073°51'0 0.0
2017-Oct-10 06:30N 40°46' W 073°51'0 0.0
2017-Oct-10 05:39N 40°46' W 073°51'0 0.0
2017-Oct-10 01:30N 40°46' W 073°51'1 1.1
2017-Oct-10 00:58N 40°46' W 073°51'2 5.3
2017-Oct-10 00:30N 40°48' W 073°54'4 7.4
2017-Oct-10 00:00N 40°46' W 073°57'3 6.1
2017-Oct-09 23:31N 40°43' W 073°59'2 4.2
2017-Oct-09 23:00N 40°43' W 074°01'4 7.9
2017-Oct-09 22:30N 40°47' W 074°00'4 7.7
2017-Oct-09 22:00N 40°50' W 073°58'4 7.6
2017-Oct-09 21:30N 40°54' W 073°56'4 0.2
2017-Oct-09 02:49N 40°57' W 073°54'2 8.2
2017-Oct-09 02:30N 40°55' W 073°55'4 8.1
2017-Oct-09 02:00N 40°51' W 073°57'4 8.0
2017-Oct-09 01:30N 40°47' W 073°60'4 7.4
2017-Oct-09 01:00N 40°44' W 074°01'4 7.2
2017-Oct-09 00:30N 40°41' W 074°03'3 5.9
2017-Oct-09 00:00N 40°39' W 074°06'1 1.8
2017-Oct-08 23:31N 40°39' W 074°07'0 0.0
2017-Oct-08 23:00N 40°39' W 074°07'0 0.0
2017-Oct-08 22:30N 40°39' W 074°07'0 0.0
2017-Oct-08 22:00N 40°39' W 074°07'0 0.0
2017-Oct-08 21:30N 40°39' W 074°07'0 0.0
2017-Oct-08 21:00N 40°39' W 074°07'0 0.0
2017-Oct-08 20:30N 40°39' W 074°07'0 0.0
2017-Oct-08 20:00N 40°39' W 074°07'0 0.0
2017-Oct-08 19:30N 40°39' W 074°07'0 0.0
2017-Oct-08 19:00N 40°39' W 074°07'0 0.0
2017-Oct-08 18:30N 40°39' W 074°07'0 0.0
2017-Oct-08 18:00N 40°39' W 074°07'0 0.0
2017-Oct-08 17:30N 40°39' W 074°07'0 0.0
2017-Oct-08 17:00N 40°39' W 074°07'0 0.0
2017-Oct-08 16:30N 40°39' W 074°07'0 0.0
2017-Oct-08 16:00N 40°39' W 074°07'0 0.0
2017-Oct-08 15:30N 40°39' W 074°07'0 0.0
2017-Oct-08 15:00N 40°39' W 074°07'0 0.0
2017-Oct-08 14:30N 40°39' W 074°07'0 0.0
2017-Oct-08 14:00N 40°39' W 074°07'0 0.0
2017-Oct-08 13:30N 40°39' W 074°07'0 0.0
2017-Oct-08 13:00N 40°39' W 074°07'0 0.0
2017-Oct-08 12:30N 40°39' W 074°07'0 0.0
2017-Oct-08 12:00N 40°39' W 074°07'0 0.0
2017-Oct-08 11:30N 40°39' W 074°07'0 0.0
2017-Oct-08 11:00N 40°39' W 074°07'2 3.1
2017-Oct-08 10:30N 40°39' W 074°05'4 7.1
2017-Oct-08 10:00N 40°41' W 074°01'4 7.3
2017-Oct-08 09:30N 40°44' W 073°58'4 8.6
2017-Oct-08 09:01N 40°47' W 073°55'2 3.8
2017-Oct-08 08:30N 40°48' W 073°53'2 4.6
2017-Oct-08 08:00N 40°46' W 073°51'0 0.3
2017-Oct-08 07:30N 40°46' W 073°51'0 0.0
2017-Oct-08 07:00N 40°46' W 073°51'0 0.0
2017-Oct-08 06:30N 40°46' W 073°51'0 0.0
2017-Oct-08 05:59N 40°46' W 073°51'0 0.0
2017-Oct-08 05:30N 40°46' W 073°51'0 0.0
2017-Oct-08 04:58N 40°46' W 073°51'0 0.0
2017-Oct-08 04:30N 40°46' W 073°51'0 0.0
2017-Oct-08 04:00N 40°46' W 073°51'0 0.0
2017-Oct-08 03:29N 40°46' W 073°51'0 0.0
2017-Oct-08 02:58N 40°46' W 073°51'0 0.0
2017-Oct-08 02:30N 40°46' W 073°51'  
Track history (hours):
 
Tides and Currents Weather Stations Pressure Air Temp Water Temp Dewpoint Dewpoint Depression Visibility Wind Speed Wind Dir Waves Ship Positions

Dorothy J

Owner: HENRY MARINE SERVICE INC, STATEN ISLAND, NY. More information available from US FCC via Universal Licensing System and Coast Guard Vessel Documentation Center.

Last reported at 2017-Oct-18 02:00 UTC. Time now 2017-Oct-18 02:31 UTC.
Position N 40°46' W 073°51'.

Length 20 m; draft 3 m.

Type: Tug. MMSI: 367015890.

Date/timePositionNaut miles runAvg speedWind from/ knotsBaromVisibWave heightAir tempDewpointWater temp
2017-Oct-18 02:00N 40°46' W 073°51'0 0.0
2017-Oct-18 01:30N 40°46' W 073°51'0 0.0
2017-Oct-18 00:53N 40°46' W 073°51'0 0.0
2017-Oct-18 00:29N 40°46' W 073°51'0 0.0
2017-Oct-18 00:00N 40°46' W 073°51'0 0.0
2017-Oct-17 23:30N 40°46' W 073°51'0 0.0
2017-Oct-17 22:54N 40°46' W 073°51'0 0.0
2017-Oct-17 22:29N 40°46' W 073°51'0 0.0
2017-Oct-17 20:33N 40°46' W 073°51'0 0.0
2017-Oct-17 20:26N 40°46' W 073°51'0 0.0
2017-Oct-17 20:00N 40°46' W 073°51'0 0.0
2017-Oct-17 19:27N 40°46' W 073°51'0 0.0
2017-Oct-17 18:55N 40°46' W 073°51'0 0.0
2017-Oct-17 18:27N 40°46' W 073°51'0 0.0
2017-Oct-17 17:59N 40°46' W 073°51'0 0.0
2017-Oct-17 17:23N 40°46' W 073°51'0 0.0
2017-Oct-17 16:57N 40°46' W 073°51'0 0.0
2017-Oct-17 16:29N 40°46' W 073°51'0 0.0
2017-Oct-17 16:00N 40°46' W 073°51'0 0.0
2017-Oct-17 15:30N 40°46' W 073°51'0 0.1
2017-Oct-17 14:23N 40°46' W 073°51'2 6.2
2017-Oct-17 14:00N 40°48' W 073°53'1 1.4
2017-Oct-17 13:30N 40°47' W 073°52'2 3.1
2017-Oct-17 12:57N 40°46' W 073°51'0 0.1
2017-Oct-17 12:30N 40°46' W 073°51'0 0.0
2017-Oct-17 11:57N 40°46' W 073°51'0 0.0
2017-Oct-17 11:30N 40°46' W 073°51'0 0.0
2017-Oct-17 10:59N 40°46' W 073°51'0 0.1
2017-Oct-17 10:30N 40°46' W 073°51'0 0.0
2017-Oct-17 09:41N 40°46' W 073°51'0 0.0
2017-Oct-17 09:13N 40°46' W 073°51'1 3.6
2017-Oct-17 09:00N 40°46' W 073°51'3 5.2
2017-Oct-17 08:30N 40°48' W 073°54'4 7.9
2017-Oct-17 08:00N 40°45' W 073°57'3 6.7
2017-Oct-17 07:30N 40°42' W 073°59'3 6.1
2017-Oct-17 07:00N 40°40' W 074°02'2 4.1
2017-Oct-17 06:30N 40°39' W 074°05'2 4.6
2017-Oct-17 06:00N 40°39' W 074°07'1 2.1
2017-Oct-17 05:30N 40°38' W 074°09'0 0.0
2017-Oct-17 05:00N 40°38' W 074°09'0 0.0
2017-Oct-17 04:30N 40°38' W 074°09'0 0.0
2017-Oct-17 04:00N 40°38' W 074°09'0 0.0
2017-Oct-17 03:30N 40°38' W 074°09'0 0.0
2017-Oct-17 03:00N 40°38' W 074°09'0 0.0
2017-Oct-17 02:30N 40°38' W 074°09'0 0.0
2017-Oct-17 02:00N 40°38' W 074°09'1 2.5
2017-Oct-17 01:30N 40°39' W 074°07'2 3.8
2017-Oct-17 01:00N 40°39' W 074°05'2 4.1
2017-Oct-17 00:31N 40°40' W 074°03'3 5.3
2017-Oct-17 00:00N 40°43' W 074°02'2 4.5
2017-Oct-16 23:30N 40°45' W 074°01'2 3.5
2017-Oct-16 23:00N 40°47' W 074°00'2 3.2
2017-Oct-16 22:30N 40°48' W 073°59'1 3.0
2017-Oct-16 22:00N 40°49' W 073°58'1 2.5
2017-Oct-16 21:30N 40°51' W 073°57'2 4.5
2017-Oct-16 21:00N 40°53' W 073°56'3 5.2
2017-Oct-16 20:30N 40°55' W 073°55'4 0.2
2017-Oct-15 18:45N 40°59' W 073°54'2 5.8
2017-Oct-15 18:24N 40°57' W 073°54'2 5.8
2017-Oct-15 18:00N 40°55' W 073°55'3 5.2
2017-Oct-15 17:30N 40°52' W 073°56'2 4.7
2017-Oct-15 17:00N 40°50' W 073°57'2 4.4
2017-Oct-15 16:30N 40°48' W 073°59'2 4.3
2017-Oct-15 16:00N 40°46' W 074°00'2 4.6
2017-Oct-15 15:30N 40°44' W 074°01'2 4.7
2017-Oct-15 15:00N 40°42' W 074°01'8 8.3
2017-Oct-15 14:00N 40°48' W 073°53'3 5.5
2017-Oct-15 13:30N 40°46' W 073°51'0 0.0
2017-Oct-15 12:48N 40°46' W 073°51'0 0.0
2017-Oct-15 12:27N 40°46' W 073°51'0 0.0
2017-Oct-15 12:00N 40°46' W 073°51'0 0.0
2017-Oct-15 11:30N 40°46' W 073°51'0 0.0
2017-Oct-15 10:58N 40°46' W 073°51'0 0.0
2017-Oct-15 10:30N 40°46' W 073°51'0 0.0
2017-Oct-15 10:00N 40°46' W 073°51'0 0.0
2017-Oct-15 09:25N 40°46' W 073°51'0 0.0
2017-Oct-15 09:00N 40°46' W 073°51'0 0.0
2017-Oct-15 08:29N 40°46' W 073°51'0 0.0
2017-Oct-15 07:59N 40°46' W 073°51'0 0.0
2017-Oct-15 07:30N 40°46' W 073°51'0 0.0
2017-Oct-15 07:00N 40°46' W 073°51'0 0.0
2017-Oct-15 06:29N 40°46' W 073°51'0 0.0
2017-Oct-15 06:00N 40°46' W 073°51'0 0.0
2017-Oct-15 05:30N 40°46' W 073°51'0 0.0
2017-Oct-15 05:00N 40°46' W 073°51'0 0.0
2017-Oct-15 04:30N 40°46' W 073°51'0 0.0
2017-Oct-15 04:00N 40°46' W 073°51'0 0.0
2017-Oct-15 03:30N 40°46' W 073°51'0 0.0
2017-Oct-15 03:00N 40°46' W 073°51'0 0.0
2017-Oct-15 02:27N 40°46' W 073°51'0 0.0
2017-Oct-15 01:51N 40°46' W 073°51'0 0.0
2017-Oct-15 01:28N 40°46' W 073°51'0 0.0
2017-Oct-15 00:54N 40°46' W 073°51'0 0.0
2017-Oct-15 00:16N 40°46' W 073°51'0 0.3
2017-Oct-14 23:59N 40°46' W 073°51'1 1.5
2017-Oct-14 23:30N 40°46' W 073°51'1 3.0
2017-Oct-14 23:00N 40°48' W 073°52'1 1.5
2017-Oct-14 22:28N 40°47' W 073°52'1 0.6
2017-Oct-14 20:15N 40°46' W 073°51'0 0.0
2017-Oct-14 19:59N 40°46' W 073°51'0 0.0
2017-Oct-14 19:28N 40°46' W 073°51'0 0.0
2017-Oct-14 19:00N 40°46' W 073°51'0 0.4
2017-Oct-14 18:29N 40°46' W 073°51'3 6.7
2017-Oct-14 17:59N 40°48' W 073°54'510.2
2017-Oct-14 17:30N 40°44' W 073°58'4 8.5
2017-Oct-14 17:00N 40°41' W 074°02'3 6.6
2017-Oct-14 16:30N 40°39' W 074°05'3 6.7
2017-Oct-14 16:00N 40°39' W 074°10'2 3.2
2017-Oct-14 15:30N 40°38' W 074°12'2 4.4
2017-Oct-14 15:00N 40°39' W 074°09'1 2.5
2017-Oct-14 14:29N 40°38' W 074°07'0 0.0
2017-Oct-14 14:00N 40°38' W 074°07'0 0.0
2017-Oct-14 13:30N 40°38' W 074°07'0 0.0
2017-Oct-14 12:59N 40°38' W 074°07'0 0.0
2017-Oct-14 10:11N 40°38' W 074°07'0 0.0
2017-Oct-14 07:58N 40°38' W 074°07'0 0.0
2017-Oct-14 06:11N 40°38' W 074°07'0 0.0
2017-Oct-14 04:05N 40°38' W 074°07'0 0.0
2017-Oct-14 02:29N 40°38' W 074°07'0 0.0
2017-Oct-14 01:55N 40°38' W 074°07'1 2.9
2017-Oct-14 01:30N 40°38' W 074°09'1 1.2
2017-Oct-14 01:00N 40°39' W 074°08'2 5.0
2017-Oct-14 00:30N 40°39' W 074°05'3 6.1
2017-Oct-14 00:00N 40°41' W 074°02'3 6.7
2017-Oct-13 23:30N 40°45' W 074°01'3 6.1
2017-Oct-13 23:00N 40°47' W 073°59'3 5.6
2017-Oct-13 22:30N 40°50' W 073°58'2 4.8
2017-Oct-13 22:00N 40°52' W 073°57'2 4.6
2017-Oct-13 21:30N 40°54' W 073°56'2 4.5
2017-Oct-13 20:59N 40°56' W 073°55'3 0.1
2017-Oct-13 02:29N 40°59' W 073°54'3 4.4
2017-Oct-13 01:49N 40°56' W 073°54'1 4.6
2017-Oct-13 01:30N 40°55' W 073°55'2 4.4
2017-Oct-13 01:00N 40°53' W 073°56'2 4.6
2017-Oct-13 00:30N 40°51' W 073°57'2 4.6
2017-Oct-13 00:00N 40°49' W 073°58'2 4.8
2017-Oct-12 23:30N 40°47' W 073°60'3 5.3
2017-Oct-12 23:00N 40°44' W 074°01'2 3.9
2017-Oct-12 22:30N 40°42' W 073°60'4 8.5
2017-Oct-12 22:00N 40°46' W 073°57'4 7.8
2017-Oct-12 21:30N 40°48' W 073°52'2 3.2
2017-Oct-12 20:44N 40°46' W 073°51'0 0.0
2017-Oct-12 20:21N 40°46' W 073°51'0 0.0
2017-Oct-12 19:58N 40°46' W 073°51'0 0.0
2017-Oct-12 19:30N 40°46' W 073°51'0 0.0
2017-Oct-12 18:58N 40°46' W 073°51'0 0.0
2017-Oct-12 18:30N 40°46' W 073°51'0 0.0
2017-Oct-12 17:59N 40°46' W 073°51'0 0.0
2017-Oct-12 17:30N 40°46' W 073°51'0 0.0
2017-Oct-12 16:59N 40°46' W 073°51'0 0.0
2017-Oct-12 15:05N 40°46' W 073°51'0 0.0
2017-Oct-12 14:57N 40°46' W 073°51'0 0.0
2017-Oct-12 14:28N 40°46' W 073°51'0 0.0
2017-Oct-12 12:17N 40°46' W 073°51'0 0.0
2017-Oct-12 04:52N 40°46' W 073°51'2 4.9
2017-Oct-12 04:30N 40°48' W 073°52'3 5.7
2017-Oct-12 04:00N 40°47' W 073°55'4 7.6
2017-Oct-12 03:30N 40°44' W 073°58'3 5.9
2017-Oct-12 03:00N 40°42' W 074°01'3 6.2
2017-Oct-12 02:30N 40°45' W 074°01'3 6.9
2017-Oct-12 02:00N 40°48' W 073°59'4 7.3
2017-Oct-12 01:30N 40°51' W 073°57'4 8.0
2017-Oct-12 01:00N 40°55' W 073°55'18 0.7
2017-Oct-11 00:00N 40°39' W 074°07'0 0.0
2017-Oct-10 23:30N 40°39' W 074°07'2 3.3
2017-Oct-10 23:00N 40°39' W 074°05'2 4.6
2017-Oct-10 22:30N 40°41' W 074°02'4 8.1
2017-Oct-10 22:00N 40°43' W 073°58'5 9.5
2017-Oct-10 21:30N 40°47' W 073°55'3 5.5
2017-Oct-10 20:59N 40°47' W 073°51'1 1.7
2017-Oct-10 20:30N 40°46' W 073°51'0 0.1
2017-Oct-10 20:00N 40°46' W 073°51'0 0.0
2017-Oct-10 19:30N 40°46' W 073°51'0 0.0
2017-Oct-10 18:59N 40°46' W 073°51'0 0.0
2017-Oct-10 18:30N 40°46' W 073°51'2 4.5
2017-Oct-10 18:00N 40°48' W 073°52'2 4.0
2017-Oct-10 17:30N 40°46' W 073°51'0 0.8
2017-Oct-10 17:00N 40°46' W 073°51'0 0.0
2017-Oct-10 15:27N 40°46' W 073°51'0 0.0
2017-Oct-10 14:55N 40°46' W 073°51'0 0.0
2017-Oct-10 13:59N 40°46' W 073°51'0 0.0
2017-Oct-10 13:05N 40°46' W 073°51'0 0.0
2017-Oct-10 12:58N 40°46' W 073°51'0 0.0
2017-Oct-10 12:25N 40°46' W 073°51'0 0.0
2017-Oct-10 11:58N 40°46' W 073°51'0 0.0
2017-Oct-10 11:27N 40°46' W 073°51'0 0.0
2017-Oct-10 11:00N 40°46' W 073°51'0 0.0
2017-Oct-10 10:29N 40°46' W 073°51'0 0.0
2017-Oct-10 10:00N 40°46' W 073°51'0 0.0
2017-Oct-10 09:27N 40°46' W 073°51'0 0.0
2017-Oct-10 08:56N 40°46' W 073°51'0 0.0
2017-Oct-10 08:29N 40°46' W 073°51'0 0.0
2017-Oct-10 07:59N 40°46' W 073°51'0 0.0
2017-Oct-10 07:29N 40°46' W 073°51'0 0.0
2017-Oct-10 06:54N 40°46' W 073°51'0 0.0
2017-Oct-10 06:30N 40°46' W 073°51'0 0.0
2017-Oct-10 05:39N 40°46' W 073°51'0 0.0
2017-Oct-10 01:30N 40°46' W 073°51'1 1.1
2017-Oct-10 00:58N 40°46' W 073°51'2 5.3
2017-Oct-10 00:30N 40°48' W 073°54'4 7.4
2017-Oct-10 00:00N 40°46' W 073°57'3 6.1
2017-Oct-09 23:31N 40°43' W 073°59'2 4.2
2017-Oct-09 23:00N 40°43' W 074°01'4 7.9
2017-Oct-09 22:30N 40°47' W 074°00'4 7.7
2017-Oct-09 22:00N 40°50' W 073°58'4 7.6
2017-Oct-09 21:30N 40°54' W 073°56'4 0.2
2017-Oct-09 02:49N 40°57' W 073°54'2 8.2
2017-Oct-09 02:30N 40°55' W 073°55'4 8.1
2017-Oct-09 02:00N 40°51' W 073°57'4 8.0
2017-Oct-09 01:30N 40°47' W 073°60'4 7.4
2017-Oct-09 01:00N 40°44' W 074°01'4 7.2
2017-Oct-09 00:30N 40°41' W 074°03'3 5.9
2017-Oct-09 00:00N 40°39' W 074°06'1 1.8
2017-Oct-08 23:31N 40°39' W 074°07'0 0.0
2017-Oct-08 23:00N 40°39' W 074°07'0 0.0
2017-Oct-08 22:30N 40°39' W 074°07'0 0.0
2017-Oct-08 22:00N 40°39' W 074°07'0 0.0
2017-Oct-08 21:30N 40°39' W 074°07'0 0.0
2017-Oct-08 21:00N 40°39' W 074°07'0 0.0
2017-Oct-08 20:30N 40°39' W 074°07'0 0.0
2017-Oct-08 20:00N 40°39' W 074°07'0 0.0
2017-Oct-08 19:30N 40°39' W 074°07'0 0.0
2017-Oct-08 19:00N 40°39' W 074°07'0 0.0
2017-Oct-08 18:30N 40°39' W 074°07'0 0.0
2017-Oct-08 18:00N 40°39' W 074°07'0 0.0
2017-Oct-08 17:30N 40°39' W 074°07'0 0.0
2017-Oct-08 17:00N 40°39' W 074°07'0 0.0
2017-Oct-08 16:30N 40°39' W 074°07'0 0.0
2017-Oct-08 16:00N 40°39' W 074°07'0 0.0
2017-Oct-08 15:30N 40°39' W 074°07'0 0.0
2017-Oct-08 15:00N 40°39' W 074°07'0 0.0
2017-Oct-08 14:30N 40°39' W 074°07'0 0.0
2017-Oct-08 14:00N 40°39' W 074°07'0 0.0
2017-Oct-08 13:30N 40°39' W 074°07'0 0.0
2017-Oct-08 13:00N 40°39' W 074°07'0 0.0
2017-Oct-08 12:30N 40°39' W 074°07'0 0.0
2017-Oct-08 12:00N 40°39' W 074°07'0 0.0
2017-Oct-08 11:30N 40°39' W 074°07'0 0.0
2017-Oct-08 11:00N 40°39' W 074°07'2 3.1
2017-Oct-08 10:30N 40°39' W 074°05'4 7.1
2017-Oct-08 10:00N 40°41' W 074°01'4 7.3
2017-Oct-08 09:30N 40°44' W 073°58'4 8.6
2017-Oct-08 09:01N 40°47' W 073°55'2 3.8
2017-Oct-08 08:30N 40°48' W 073°53'2 4.6
2017-Oct-08 08:00N 40°46' W 073°51'0 0.3
2017-Oct-08 07:30N 40°46' W 073°51'0 0.0
2017-Oct-08 07:00N 40°46' W 073°51'0 0.0
2017-Oct-08 06:30N 40°46' W 073°51'0 0.0
2017-Oct-08 05:59N 40°46' W 073°51'0 0.0
2017-Oct-08 05:30N 40°46' W 073°51'0 0.0
2017-Oct-08 04:58N 40°46' W 073°51'0 0.0
2017-Oct-08 04:30N 40°46' W 073°51'0 0.0
2017-Oct-08 04:00N 40°46' W 073°51'0 0.0
2017-Oct-08 03:29N 40°46' W 073°51'0 0.0
2017-Oct-08 02:58N 40°46' W 073°51'0 0.0
2017-Oct-08 02:30N 40°46' W 073°51'  

Dump ship's entire track history